Time;durP1;ratioP1;P1;durP2;ratioP2;P2;SDS_P1;SDS_P2;PMS_P1;PMS_P2;Temp;Humidity;BMP_temperature;BMP_pressure;BME280_temperature;BME280_humidity;BME280_pressure;Samples;Min_cycle;Max_cycle;Signal;HPM_P1;HPM_P2
2021/12/24 00:00:46;;;;;;;87.83;39.50;;;-0.20;99.90;;;;;;5034317;28;20222;-73
2021/12/24 00:03:35;;;;;;;93.53;41.70;;;-0.20;99.90;;;;;;5054448;28;20226;-72
2021/12/24 00:06:24;;;;;;;91.90;40.37;;;-0.20;99.90;;;;;;5043284;28;20571;-72
2021/12/24 00:09:20;;;;;;;81.13;40.83;;;-0.20;99.90;;;;;;5021084;28;20603;-73
2021/12/24 00:12:15;;;;;;;85.87;39.70;;;-0.20;99.90;;;;;;5042278;28;20216;-74
2021/12/24 00:15:20;;;;;;;81.87;39.20;;;-0.20;99.90;;;;;;5051544;28;20914;-74
2021/12/24 00:18:17;;;;;;;81.67;39.67;;;-0.10;99.90;;;;;;5042355;28;20219;-74
2021/12/24 00:36:43;;;;;;;81.00;37.13;;;-0.10;99.90;;;;;;5041527;28;20227;-71
2021/12/24 00:39:38;;;;;;;78.97;37.67;;;-0.10;99.90;;;;;;5065406;28;20368;-74
2021/12/24 00:42:27;;;;;;;84.60;38.70;;;-0.10;99.90;;;;;;5066697;28;20224;-73
2021/12/24 00:45:23;;;;;;;79.60;38.70;;;-0.10;99.90;;;;;;5068736;28;20578;-72
2021/12/24 00:48:15;;;;;;;80.63;38.00;;;-0.10;99.90;;;;;;5071802;28;20226;-72
2021/12/24 00:51:19;;;;;;;75.43;35.80;;;-0.10;99.90;;;;;;5077563;28;20588;-72
2021/12/24 00:57:15;;;;;;;79.33;37.70;;;0.00;99.90;;;;;;5074349;28;20215;-72
2021/12/24 01:00:07;;;;;;;84.43;37.87;;;0.00;99.90;;;;;;5080520;28;20222;-71
2021/12/24 01:03:01;;;;;;;79.27;37.70;;;0.00;99.90;;;;;;5090295;28;20278;-72
2021/12/24 01:05:53;;;;;;;77.37;36.53;;;0.00;99.90;;;;;;5079189;28;20218;-74
2021/12/24 01:08:41;;;;;;;76.80;37.63;;;0.00;99.90;;;;;;5089435;28;20217;-74
2021/12/24 01:11:30;;;;;;;84.80;37.87;;;0.00;99.90;;;;;;5079576;28;20231;-73
2021/12/24 01:14:22;;;;;;;76.00;37.17;;;0.00;99.90;;;;;;5079330;28;20378;-73
2021/12/24 01:17:18;;;;;;;83.17;37.83;;;0.00;99.90;;;;;;5075601;28;20250;-73
2021/12/24 01:20:16;;;;;;;79.70;38.47;;;0.10;99.90;;;;;;5074578;28;20216;-74
2021/12/24 01:26:19;;;;;;;78.23;36.60;;;0.10;99.90;;;;;;5075533;28;20219;-74
2021/12/24 01:38:51;;;;;;;80.67;37.37;;;0.10;99.90;;;;;;5059724;28;20345;-74
2021/12/24 01:44:46;;;;;;;80.63;36.93;;;0.10;99.90;;;;;;5061446;28;20262;-73
2021/12/24 01:47:37;;;;;;;75.00;35.50;;;0.10;99.90;;;;;;5059099;28;20702;-74
2021/12/24 01:50:28;;;;;;;71.77;34.03;;;0.10;99.90;;;;;;5061609;28;20237;-73
2021/12/24 01:53:20;;;;;;;74.40;36.03;;;0.00;99.90;;;;;;5063752;28;20225;-74
2021/12/24 01:56:10;;;;;;;72.97;36.20;;;0.10;99.90;;;;;;5061108;28;20227;-73
2021/12/24 01:59:00;;;;;;;78.33;36.27;;;0.10;99.90;;;;;;5063177;28;20879;-74
2021/12/24 02:01:50;;;;;;;79.20;37.03;;;0.10;99.90;;;;;;5060423;28;20222;-73
2021/12/24 02:04:40;;;;;;;78.03;36.57;;;0.10;99.90;;;;;;5062925;28;20233;-73
2021/12/24 02:07:29;;;;;;;76.83;35.67;;;0.10;99.90;;;;;;5060609;28;20542;-73
2021/12/24 02:10:19;;;;;;;75.40;36.00;;;0.20;99.90;;;;;;5060119;28;20219;-74
2021/12/24 02:13:07;;;;;;;70.77;36.07;;;0.20;99.90;;;;;;5077853;28;20253;-74
2021/12/24 02:16:12;;;;;;;70.23;35.13;;;0.10;99.90;;;;;;5070420;28;20254;-74
2021/12/24 02:28:36;;;;;;;74.47;34.90;;;0.20;99.90;;;;;;5071992;28;20235;-73
2021/12/24 02:31:28;;;;;;;69.57;35.67;;;0.20;99.90;;;;;;5061786;28;20225;-72
2021/12/24 02:34:16;;;;;;;67.70;35.67;;;0.20;99.90;;;;;;5059788;28;20690;-73
2021/12/24 02:37:05;;;;;;;71.27;34.97;;;0.20;99.90;;;;;;5058827;28;20227;-71
2021/12/24 02:39:56;;;;;;;66.50;33.47;;;0.20;99.90;;;;;;5072615;28;20220;-71
2021/12/24 02:42:50;;;;;;;71.57;34.27;;;0.20;99.90;;;;;;5075867;28;20226;-73
2021/12/24 02:45:41;;;;;;;69.90;35.53;;;0.20;99.90;;;;;;5078409;28;20258;-71
2021/12/24 02:49:02;;;;;;;69.50;34.10;;;0.20;99.90;;;;;;5051310;28;20321;-72
2021/12/24 02:55:02;;;;;;;75.20;34.40;;;0.20;99.90;;;;;;5071465;28;20325;-71
2021/12/24 02:57:51;;;;;;;69.07;33.73;;;0.30;99.90;;;;;;5058146;28;20226;-72
2021/12/24 03:00:40;;;;;;;67.83;33.37;;;0.30;99.90;;;;;;5074254;28;20912;-72
2021/12/24 03:03:29;;;;;;;66.13;33.40;;;0.30;99.90;;;;;;5076110;28;20401;-71
2021/12/24 03:06:19;;;;;;;70.83;34.03;;;0.20;99.90;;;;;;5064489;28;20335;-73
2021/12/24 03:09:12;;;;;;;69.80;34.00;;;0.30;99.90;;;;;;5062824;28;20233;-73
2021/12/24 03:12:03;;;;;;;67.60;33.57;;;0.30;99.90;;;;;;5060459;28;20225;-73
2021/12/24 03:14:55;;;;;;;74.70;33.77;;;0.30;99.90;;;;;;5064242;28;20245;-73
2021/12/24 03:17:49;;;;;;;65.50;32.73;;;0.20;99.90;;;;;;5071390;28;20734;-73
2021/12/24 03:20:38;;;;;;;67.50;33.03;;;0.30;99.90;;;;;;5057481;28;20222;-73
2021/12/24 03:23:36;;;;;;;69.50;34.90;;;0.30;99.90;;;;;;5069503;28;20648;-72
2021/12/24 03:26:25;;;;;;;64.40;32.80;;;0.30;99.90;;;;;;5058881;28;20292;-73
2021/12/24 03:29:18;;;;;;;64.37;33.53;;;0.30;99.90;;;;;;5060765;28;20221;-74
2021/12/24 03:32:09;;;;;;;69.37;33.80;;;0.30;99.90;;;;;;5063547;28;20218;-74
2021/12/24 03:34:57;;;;;;;68.90;33.67;;;0.30;99.90;;;;;;5070755;28;20861;-74
2021/12/24 03:37:46;;;;;;;70.40;35.03;;;0.30;99.90;;;;;;5059144;28;20386;-72
2021/12/24 03:40:35;;;;;;;70.53;33.23;;;0.30;99.90;;;;;;5058953;28;20229;-72
2021/12/24 03:43:24;;;;;;;64.87;32.73;;;0.30;99.90;;;;;;5062135;28;20218;-72
2021/12/24 03:46:22;;;;;;;63.97;32.60;;;0.40;99.90;;;;;;5059746;28;20304;-72
2021/12/24 03:49:18;;;;;;;65.10;33.47;;;0.30;99.90;;;;;;5074918;28;20708;-71
2021/12/24 03:52:23;;;;;;;67.03;32.70;;;0.30;99.90;;;;;;5064421;28;20868;-73
2021/12/24 03:55:11;;;;;;;60.80;32.43;;;0.40;99.90;;;;;;5071662;28;20226;-73
2021/12/24 03:58:00;;;;;;;63.03;32.10;;;0.40;99.90;;;;;;5044309;28;20290;-72
2021/12/24 04:01:07;;;;;;;63.43;32.17;;;0.40;99.90;;;;;;5071073;28;20243;-73
2021/12/24 04:04:16;;;;;;;64.37;33.70;;;0.50;99.90;;;;;;5078274;28;20254;-73
2021/12/24 04:07:18;;;;;;;61.73;32.07;;;0.40;99.90;;;;;;5071296;28;20262;-72
2021/12/24 04:10:32;;;;;;;63.17;32.27;;;0.40;99.90;;;;;;5073890;28;20247;-72
2021/12/24 04:13:47;;;;;;;61.70;31.30;;;0.40;99.90;;;;;;5059732;28;20221;-72
2021/12/24 04:16:39;;;;;;;67.33;32.63;;;0.40;99.90;;;;;;5061832;28;20217;-73
2021/12/24 04:25:40;;;;;;;58.10;32.77;;;0.40;99.90;;;;;;5061419;28;20590;-73
2021/12/24 04:28:29;;;;;;;63.53;32.33;;;0.50;99.90;;;;;;5058377;28;20225;-73
2021/12/24 04:31:22;;;;;;;60.73;31.03;;;0.50;99.90;;;;;;5056946;28;20313;-74
2021/12/24 04:34:14;;;;;;;61.43;32.00;;;0.40;99.90;;;;;;5058347;28;20775;-72
2021/12/24 04:52:56;;;;;;;61.20;32.00;;;0.60;99.90;;;;;;5062087;28;20227;-72
2021/12/24 05:02:25;;;;;;;59.83;30.90;;;0.60;99.90;;;;;;5073449;28;20595;-71
2021/12/24 05:05:21;;;;;;;56.57;31.47;;;0.60;99.90;;;;;;5064399;28;20319;-71
2021/12/24 05:08:22;;;;;;;59.50;31.77;;;0.70;99.90;;;;;;5058682;28;20216;-72
2021/12/24 05:11:13;;;;;;;55.80;30.83;;;0.70;99.90;;;;;;5078055;28;20219;-71
2021/12/24 05:14:02;;;;;;;59.80;32.47;;;0.70;99.90;;;;;;5057471;28;20377;-70
2021/12/24 05:17:24;;;;;;;60.07;31.73;;;0.70;99.90;;;;;;5060769;28;20529;-73
2021/12/24 05:23:58;;;;;;;59.87;31.23;;;0.80;99.90;;;;;;5000837;28;20233;-71
2021/12/24 05:26:50;;;;;;;62.13;31.73;;;0.80;99.90;;;;;;5056273;28;20814;-70
2021/12/24 05:29:38;;;;;;;58.73;31.33;;;0.80;99.90;;;;;;5059469;28;20224;-70
2021/12/24 05:32:27;;;;;;;60.50;32.50;;;0.80;99.90;;;;;;5077879;28;20219;-71
2021/12/24 05:35:16;;;;;;;60.20;32.33;;;0.80;99.90;;;;;;5065255;28;20598;-71
2021/12/24 05:38:05;;;;;;;57.90;31.63;;;0.80;99.90;;;;;;5070693;28;20306;-70
2021/12/24 05:40:55;;;;;;;57.83;30.97;;;0.90;99.90;;;;;;5061311;28;20260;-71
2021/12/24 05:43:44;;;;;;;55.50;31.20;;;0.90;99.90;;;;;;5075677;28;20222;-72
2021/12/24 05:46:33;;;;;;;52.00;30.97;;;0.90;99.90;;;;;;5057326;28;20657;-72
2021/12/24 05:49:37;;;;;;;53.73;30.43;;;0.90;99.90;;;;;;5076709;28;20245;-74
2021/12/24 05:52:52;;;;;;;56.93;31.00;;;1.00;99.90;;;;;;5077447;28;20764;-73
2021/12/24 05:56:01;;;;;;;58.23;31.23;;;1.00;99.90;;;;;;5068724;28;20254;-74
2021/12/24 05:58:50;;;;;;;52.83;30.73;;;1.00;99.90;;;;;;5047239;28;20246;-72
2021/12/24 06:01:40;;;;;;;60.43;32.90;;;1.00;99.90;;;;;;5055708;28;20303;-72
2021/12/24 06:04:29;;;;;;;58.37;30.97;;;1.00;99.90;;;;;;5066209;28;20437;-71
2021/12/24 06:07:17;;;;;;;59.73;31.07;;;1.10;99.90;;;;;;5077149;28;20268;-72
2021/12/24 06:10:07;;;;;;;56.77;32.00;;;1.00;99.90;;;;;;5076813;28;20706;-72
2021/12/24 06:12:57;;;;;;;58.90;30.70;;;1.10;99.90;;;;;;5077398;28;20223;-71
2021/12/24 06:15:48;;;;;;;64.87;33.40;;;1.10;99.90;;;;;;5059815;28;20233;-72
2021/12/24 06:18:40;;;;;;;59.13;31.03;;;1.10;99.90;;;;;;5077948;28;20370;-71
2021/12/24 06:21:28;;;;;;;58.80;32.23;;;1.10;99.90;;;;;;5064700;28;20532;-71
2021/12/24 06:24:18;;;;;;;65.00;32.47;;;1.00;99.90;;;;;;5076112;28;20228;-71
2021/12/24 06:27:07;;;;;;;54.60;31.13;;;1.10;99.90;;;;;;5076735;28;20721;-72
2021/12/24 06:29:57;;;;;;;60.97;31.93;;;1.10;99.90;;;;;;5065653;28;20699;-72
2021/12/24 06:32:47;;;;;;;61.53;32.77;;;1.10;99.90;;;;;;5062096;28;20288;-72
2021/12/24 06:35:36;;;;;;;62.13;31.27;;;1.10;99.90;;;;;;5078854;28;20218;-72
2021/12/24 06:38:26;;;;;;;60.83;33.03;;;1.10;99.90;;;;;;5061082;28;20715;-72
2021/12/24 06:41:14;;;;;;;61.30;31.63;;;1.20;99.90;;;;;;5060888;28;20222;-71
2021/12/24 06:44:04;;;;;;;58.17;32.30;;;1.20;99.90;;;;;;5077056;28;20212;-72
2021/12/24 06:46:55;;;;;;;59.07;31.50;;;1.20;99.90;;;;;;5075589;28;20487;-68
2021/12/24 06:49:43;;;;;;;61.10;32.80;;;1.20;99.90;;;;;;5079229;28;20251;-72
2021/12/24 06:52:32;;;;;;;59.63;32.87;;;1.30;99.90;;;;;;5072535;28;20231;-73
2021/12/24 06:55:21;;;;;;;61.43;32.97;;;1.30;99.90;;;;;;5075877;28;20231;-72
2021/12/24 06:58:11;;;;;;;61.83;32.77;;;1.30;99.90;;;;;;5060697;28;20237;-69
2021/12/24 07:01:00;;;;;;;58.60;31.40;;;1.30;99.90;;;;;;5060294;28;20310;-72
2021/12/24 07:03:50;;;;;;;57.67;32.10;;;1.30;99.90;;;;;;5059167;28;20230;-68
2021/12/24 07:06:43;;;;;;;61.13;32.40;;;1.30;99.90;;;;;;5059082;28;20219;-68
2021/12/24 07:09:32;;;;;;;65.50;33.03;;;1.40;99.90;;;;;;5061565;28;20247;-70
2021/12/24 07:12:21;;;;;;;59.73;32.03;;;1.40;99.90;;;;;;5073907;28;20301;-69
2021/12/24 07:15:11;;;;;;;61.47;32.40;;;1.40;99.90;;;;;;5060297;28;20212;-69
2021/12/24 07:17:59;;;;;;;58.20;32.03;;;1.50;99.90;;;;;;5061794;28;20235;-71
2021/12/24 07:20:49;;;;;;;60.80;33.93;;;1.50;99.90;;;;;;5064141;28;20216;-70
2021/12/24 07:23:38;;;;;;;61.07;32.27;;;1.50;99.90;;;;;;5061062;28;20232;-70
2021/12/24 07:26:26;;;;;;;57.53;33.20;;;1.60;99.90;;;;;;5059422;28;20231;-69
2021/12/24 07:29:15;;;;;;;62.93;33.23;;;1.60;99.90;;;;;;5077525;28;20238;-71
2021/12/24 07:32:06;;;;;;;64.73;32.33;;;1.60;99.90;;;;;;5080077;28;20356;-69
2021/12/24 07:34:54;;;;;;;56.20;32.20;;;1.60;99.90;;;;;;5072787;28;20619;-68
2021/12/24 07:37:44;;;;;;;57.20;31.13;;;1.60;99.90;;;;;;5059343;28;20224;-68
2021/12/24 07:40:33;;;;;;;55.00;30.80;;;1.60;99.90;;;;;;5054909;28;20229;-69
2021/12/24 07:43:21;;;;;;;58.03;33.00;;;1.70;99.90;;;;;;5072220;28;20681;-66
2021/12/24 07:46:10;;;;;;;55.77;31.53;;;1.70;99.90;;;;;;5062549;28;20227;-67
2021/12/24 07:49:11;;;;;;;57.00;30.47;;;1.70;99.90;;;;;;5056880;28;20243;-69
2021/12/24 07:52:08;;;;;;;55.97;31.57;;;1.70;99.90;;;;;;5058408;28;20694;-70
2021/12/24 07:54:59;;;;;;;59.90;32.93;;;1.70;99.90;;;;;;5073281;28;20212;-68
2021/12/24 07:58:05;;;;;;;52.40;30.60;;;1.80;99.90;;;;;;5072657;28;20219;-70
2021/12/24 08:00:57;;;;;;;52.53;31.20;;;1.80;99.90;;;;;;5068096;28;20959;-69
2021/12/24 08:03:46;;;;;;;53.77;30.93;;;1.80;99.90;;;;;;5074186;28;20219;-69
2021/12/24 08:06:35;;;;;;;55.80;30.70;;;1.90;99.90;;;;;;5073376;28;20235;-72
2021/12/24 08:09:24;;;;;;;55.87;31.10;;;2.00;99.90;;;;;;5057856;28;20235;-69
2021/12/24 08:12:17;;;;;;;58.43;31.43;;;1.90;99.90;;;;;;5070056;28;20223;-71
2021/12/24 08:15:07;;;;;;;55.47;31.60;;;1.90;99.90;;;;;;5071341;28;20238;-68
2021/12/24 08:17:55;;;;;;;54.33;31.57;;;2.00;99.90;;;;;;5070274;28;20228;-68
2021/12/24 08:20:44;;;;;;;52.80;31.67;;;2.00;99.90;;;;;;5057569;28;20227;-66
2021/12/24 08:23:33;;;;;;;54.50;31.73;;;2.00;99.90;;;;;;5072026;28;20220;-67
2021/12/24 08:26:22;;;;;;;51.33;29.97;;;2.00;99.90;;;;;;5061290;28;20550;-69
2021/12/24 08:29:12;;;;;;;51.20;30.50;;;2.00;99.90;;;;;;5056226;28;20250;-69
2021/12/24 08:32:01;;;;;;;56.67;32.50;;;2.00;99.90;;;;;;5072883;28;20225;-69
2021/12/24 08:34:52;;;;;;;52.53;29.57;;;2.10;99.90;;;;;;5057873;28;20230;-69
2021/12/24 08:37:41;;;;;;;51.33;30.60;;;2.10;99.90;;;;;;5064391;28;20220;-69
2021/12/24 08:40:30;;;;;;;51.90;30.50;;;2.10;99.90;;;;;;5063213;28;20216;-69
2021/12/24 08:43:18;;;;;;;52.53;29.37;;;2.10;99.90;;;;;;5063496;28;20261;-69
2021/12/24 08:46:08;;;;;;;53.37;29.93;;;2.10;99.90;;;;;;5077417;28;20223;-69
2021/12/24 08:48:57;;;;;;;49.57;29.53;;;2.10;99.90;;;;;;5076375;28;20227;-69
2021/12/24 08:51:46;;;;;;;51.17;28.87;;;2.10;99.90;;;;;;5063088;28;20226;-67
2021/12/24 08:54:34;;;;;;;49.70;29.27;;;2.20;99.90;;;;;;5077603;28;20261;-65
2021/12/24 08:57:23;;;;;;;49.13;28.53;;;2.20;99.90;;;;;;5065809;28;20220;-63
2021/12/24 09:00:15;;;;;;;51.90;29.90;;;2.20;99.90;;;;;;5078327;28;20223;-66
2021/12/24 09:03:05;;;;;;;47.87;27.80;;;2.20;99.90;;;;;;5076368;28;20219;-64
2021/12/24 09:05:57;;;;;;;47.43;27.87;;;2.30;99.90;;;;;;5077067;28;20220;-71
2021/12/24 09:08:46;;;;;;;52.07;30.40;;;2.40;99.90;;;;;;5077609;28;20216;-66
2021/12/24 09:11:35;;;;;;;54.77;28.80;;;2.30;99.90;;;;;;5083507;28;20231;-65
2021/12/24 09:14:27;;;;;;;50.90;29.53;;;2.30;99.90;;;;;;5068069;28;20219;-65
2021/12/24 09:17:16;;;;;;;50.53;28.73;;;2.20;99.90;;;;;;5082575;28;20211;-65
2021/12/24 09:20:08;;;;;;;50.57;30.03;;;2.30;99.90;;;;;;5079737;28;20303;-65
2021/12/24 09:22:59;;;;;;;51.47;29.73;;;2.30;99.90;;;;;;5057182;28;20310;-65
2021/12/24 09:25:48;;;;;;;55.70;30.25;;;2.30;99.90;;;;;;5049698;28;20232;-66
2021/12/24 09:28:37;;;;;;;51.00;29.83;;;2.30;99.90;;;;;;5053412;28;20234;-65
2021/12/24 09:31:26;;;;;;;51.67;29.23;;;2.40;99.90;;;;;;5057535;28;20333;-67
2021/12/24 09:34:15;;;;;;;50.70;30.23;;;2.50;99.90;;;;;;5055155;28;20378;-67
2021/12/24 09:37:06;;;;;;;50.63;30.07;;;2.50;99.90;;;;;;5054201;28;20250;-66
2021/12/24 09:39:55;;;;;;;50.07;30.17;;;2.50;99.90;;;;;;5051903;28;20231;-67
2021/12/24 09:42:44;;;;;;;54.57;30.03;;;2.50;99.90;;;;;;5055419;28;20243;-66
2021/12/24 09:45:33;;;;;;;51.87;30.03;;;2.60;99.90;;;;;;5042244;28;20232;-66
2021/12/24 09:48:22;;;;;;;49.23;28.63;;;2.40;99.90;;;;;;5060446;28;20233;-65
2021/12/24 09:51:11;;;;;;;52.20;29.13;;;2.50;99.90;;;;;;5058583;28;20221;-66
2021/12/24 09:54:01;;;;;;;51.70;29.70;;;2.60;99.90;;;;;;5054191;28;20789;-66
2021/12/24 09:56:50;;;;;;;51.07;29.13;;;2.60;99.90;;;;;;5055294;28;20216;-67
2021/12/24 09:59:39;;;;;;;49.93;29.70;;;2.60;99.90;;;;;;5050250;28;20225;-65
2021/12/24 10:02:41;;;;;;;49.90;29.20;;;2.70;99.90;;;;;;5057930;28;20223;-66
2021/12/24 10:05:35;;;;;;;47.73;28.50;;;2.70;99.90;;;;;;5055506;28;20350;-66
2021/12/24 10:08:26;;;;;;;48.37;27.57;;;2.60;99.90;;;;;;5051995;28;20792;-66
2021/12/24 10:11:17;;;;;;;48.83;29.23;;;2.70;99.90;;;;;;5051231;28;20228;-67
2021/12/24 10:14:06;;;;;;;51.10;29.90;;;2.80;99.90;;;;;;5055544;28;20220;-67
2021/12/24 10:16:55;;;;;;;51.27;29.00;;;2.70;99.90;;;;;;5066585;28;20644;-66
2021/12/24 10:19:45;;;;;;;45.90;28.30;;;2.70;99.90;;;;;;5053138;28;20280;-66
2021/12/24 10:22:43;;;;;;;50.90;29.63;;;2.70;99.90;;;;;;5058657;28;20231;-66
2021/12/24 10:25:31;;;;;;;50.67;29.50;;;2.60;99.90;;;;;;5059089;28;20564;-65
2021/12/24 10:28:22;;;;;;;50.33;28.87;;;2.70;99.90;;;;;;5075579;28;20708;-67
2021/12/24 10:31:10;;;;;;;48.20;28.77;;;2.80;99.90;;;;;;5075608;28;20695;-68
2021/12/24 10:34:11;;;;;;;48.67;29.40;;;2.80;99.90;;;;;;5061270;28;20243;-66
2021/12/24 10:37:04;;;;;;;55.40;30.97;;;2.70;99.90;;;;;;5057017;28;20263;-66
2021/12/24 10:39:54;;;;;;;46.57;28.10;;;2.70;99.90;;;;;;5072530;28;20215;-65
2021/12/24 10:42:44;;;;;;;45.07;27.77;;;2.70;99.90;;;;;;5070133;28;20239;-63
2021/12/24 10:45:35;;;;;;;51.27;29.10;;;2.70;99.90;;;;;;5078693;28;20262;-65
2021/12/24 10:48:23;;;;;;;52.40;30.17;;;2.70;99.90;;;;;;5061684;28;20266;-65
2021/12/24 10:51:20;;;;;;;55.27;31.63;;;2.70;99.90;;;;;;5071825;28;20234;-66
2021/12/24 10:54:09;;;;;;;51.20;30.30;;;2.60;99.90;;;;;;5072334;28;20231;-65
2021/12/24 10:57:16;;;;;;;53.93;32.13;;;2.70;99.90;;;;;;5071953;28;20220;-63
2021/12/24 11:00:17;;;;;;;54.53;30.53;;;2.70;99.90;;;;;;5073692;28;20230;-65
2021/12/24 11:03:09;;;;;;;53.37;29.87;;;2.80;99.90;;;;;;5070175;28;20233;-66
2021/12/24 11:06:06;;;;;;;52.77;31.10;;;2.70;99.90;;;;;;5063372;28;20241;-66
2021/12/24 11:08:55;;;;;;;57.00;32.63;;;2.70;99.90;;;;;;5069593;28;20687;-66
2021/12/24 11:11:46;;;;;;;57.23;32.07;;;2.70;99.90;;;;;;5076143;28;20245;-69
2021/12/24 11:14:35;;;;;;;55.50;31.93;;;2.70;99.90;;;;;;5075233;28;20776;-66
2021/12/24 11:17:38;;;;;;;59.13;32.37;;;2.60;99.90;;;;;;5073408;28;20217;-67
2021/12/24 11:20:30;;;;;;;62.70;32.17;;;2.60;99.90;;;;;;5076061;28;20222;-67
2021/12/24 11:23:20;;;;;;;60.37;33.23;;;2.70;99.90;;;;;;5072169;28;20222;-66
2021/12/24 11:26:11;;;;;;;65.53;36.13;;;2.70;99.90;;;;;;5073448;28;20263;-65
2021/12/24 11:29:00;;;;;;;58.67;31.53;;;2.70;99.90;;;;;;5073366;28;20223;-66
2021/12/24 11:31:49;;;;;;;60.50;32.83;;;2.60;99.90;;;;;;5077413;28;20229;-66
2021/12/24 11:34:38;;;;;;;65.50;32.93;;;2.60;99.90;;;;;;5075796;28;20315;-65
2021/12/24 11:37:29;;;;;;;60.77;31.70;;;2.70;99.90;;;;;;5074728;28;20232;-63
2021/12/24 11:40:19;;;;;;;58.67;32.27;;;2.80;99.90;;;;;;5073272;28;20226;-67
2021/12/24 11:43:08;;;;;;;61.77;32.73;;;2.80;99.90;;;;;;5074563;28;20215;-66
2021/12/24 11:45:57;;;;;;;58.60;32.20;;;2.80;99.90;;;;;;5067638;28;20640;-65
2021/12/24 11:48:49;;;;;;;53.00;31.33;;;2.80;99.90;;;;;;5061492;28;20251;-66
2021/12/24 11:51:40;;;;;;;52.47;29.97;;;2.80;99.90;;;;;;5068926;28;20216;-66
2021/12/24 11:54:31;;;;;;;52.30;28.20;;;2.80;99.90;;;;;;5070605;28;20302;-66
2021/12/24 11:57:21;;;;;;;47.40;28.47;;;2.80;99.90;;;;;;5056715;28;20231;-67
2021/12/24 12:00:12;;;;;;;47.70;27.30;;;2.80;99.90;;;;;;5060827;28;20211;-66
2021/12/24 12:03:01;;;;;;;47.10;27.83;;;2.80;99.90;;;;;;5073905;28;20332;-66
2021/12/24 12:05:49;;;;;;;46.10;27.73;;;2.80;99.90;;;;;;5058481;28;20313;-66
2021/12/24 12:08:42;;;;;;;43.17;26.20;;;2.80;99.90;;;;;;5072471;28;20851;-66
2021/12/24 12:11:35;;;;;;;43.30;25.60;;;2.90;99.90;;;;;;5054919;28;20227;-67
2021/12/24 12:14:27;;;;;;;47.67;26.27;;;2.90;99.90;;;;;;5074052;28;20220;-65
2021/12/24 12:17:24;;;;;;;43.23;25.70;;;2.90;99.90;;;;;;5069078;28;20560;-66
2021/12/24 12:20:34;;;;;;;42.90;24.33;;;2.90;99.90;;;;;;5074847;28;20221;-67
2021/12/24 12:23:50;;;;;;;39.10;23.57;;;2.80;99.90;;;;;;5061625;28;20235;-65
2021/12/24 12:26:45;;;;;;;43.07;24.33;;;2.80;99.90;;;;;;5071981;28;20215;-67
2021/12/24 12:29:47;;;;;;;36.80;23.23;;;2.90;99.90;;;;;;5062540;28;20235;-66
2021/12/24 12:32:40;;;;;;;39.83;23.17;;;2.80;99.90;;;;;;5072079;28;20222;-66
2021/12/24 12:35:35;;;;;;;37.03;23.23;;;2.80;99.90;;;;;;5070898;28;20419;-67
2021/12/24 12:38:31;;;;;;;37.87;23.93;;;2.80;99.90;;;;;;5059306;28;20223;-67
2021/12/24 12:41:25;;;;;;;36.40;22.43;;;2.80;99.90;;;;;;5072064;28;20227;-66
2021/12/24 12:44:25;;;;;;;33.80;21.27;;;2.80;99.90;;;;;;5072665;28;20217;-66
2021/12/24 12:47:15;;;;;;;37.37;22.57;;;2.80;99.90;;;;;;5069683;28;20223;-66
2021/12/24 12:50:14;;;;;;;35.60;22.00;;;2.80;99.90;;;;;;5058418;28;20244;-66
2021/12/24 12:53:25;;;;;;;39.30;23.00;;;2.80;99.90;;;;;;5061843;28;20223;-66
2021/12/24 12:56:17;;;;;;;44.93;26.43;;;2.80;99.90;;;;;;5073194;28;20207;-66
2021/12/24 12:59:08;;;;;;;49.60;27.30;;;2.80;99.90;;;;;;5072552;28;20314;-66
2021/12/24 13:02:01;;;;;;;38.37;23.97;;;2.80;99.90;;;;;;5067636;28;20360;-67
2021/12/24 13:05:11;;;;;;;39.00;24.93;;;2.90;99.90;;;;;;5067736;28;20361;-66
2021/12/24 13:08:11;;;;;;;37.37;23.37;;;2.90;99.90;;;;;;5058607;28;20230;-66
2021/12/24 13:11:03;;;;;;;40.30;23.60;;;2.80;99.90;;;;;;5062259;28;20212;-65
2021/12/24 13:13:57;;;;;;;40.37;22.20;;;2.80;99.90;;;;;;5073173;28;20231;-66
2021/12/24 13:16:49;;;;;;;43.50;24.07;;;2.90;99.90;;;;;;5059308;28;20228;-65
2021/12/24 13:22:46;;;;;;;39.57;23.13;;;2.90;99.90;;;;;;5070469;28;20242;-66
2021/12/24 13:25:38;;;;;;;37.60;23.50;;;2.90;99.90;;;;;;5060663;28;20235;-66
2021/12/24 13:28:27;;;;;;;42.07;24.10;;;2.90;99.90;;;;;;5073269;28;20215;-67
2021/12/24 13:31:16;;;;;;;45.17;23.13;;;2.80;99.90;;;;;;5075875;28;20536;-66
2021/12/24 13:34:10;;;;;;;43.23;24.30;;;2.80;99.90;;;;;;5079185;28;20231;-67
2021/12/24 13:37:03;;;;;;;38.07;23.13;;;2.70;99.90;;;;;;5076757;28;20224;-66
2021/12/24 13:39:53;;;;;;;41.37;24.40;;;2.70;99.90;;;;;;5068635;28;20216;-66
2021/12/24 13:42:44;;;;;;;40.77;23.77;;;2.70;99.90;;;;;;5068046;28;20221;-67
2021/12/24 13:45:35;;;;;;;42.47;24.30;;;2.70;99.90;;;;;;5076639;28;20229;-66
2021/12/24 13:48:29;;;;;;;42.70;23.50;;;2.70;99.90;;;;;;5072375;28;20238;-65
2021/12/24 13:54:34;;;;;;;37.20;23.40;;;2.80;99.90;;;;;;5058192;28;20221;-67
2021/12/24 13:57:24;;;;;;;45.30;25.53;;;2.70;99.90;;;;;;5074973;28;20231;-66
2021/12/24 14:00:15;;;;;;;38.27;23.00;;;2.70;99.90;;;;;;5065255;28;20238;-67
2021/12/24 14:03:08;;;;;;;42.57;23.87;;;2.70;99.90;;;;;;5064537;28;20235;-65
2021/12/24 14:06:00;;;;;;;43.40;23.33;;;2.70;99.90;;;;;;5078140;28;20220;-66
2021/12/24 14:08:48;;;;;;;44.07;23.97;;;2.70;99.90;;;;;;5064087;28;20798;-67
2021/12/24 14:11:39;;;;;;;38.77;22.97;;;2.70;99.90;;;;;;5072652;28;20223;-67
2021/12/24 14:14:41;;;;;;;50.03;30.07;;;2.80;99.90;;;;;;5074726;28;20238;-67
2021/12/24 14:18:02;;;;;;;52.77;28.23;;;2.80;99.90;;;;;;5062335;28;20222;-66
2021/12/24 14:21:44;;;;;;;45.07;23.97;;;2.70;99.90;;;;;;5071362;28;20411;-67
2021/12/24 14:24:11;;;;;;;46.30;23.10;;;2.80;99.90;;;;;;5073040;28;20784;-66
2021/12/24 14:27:03;;;;;;;39.80;24.10;;;2.80;99.90;;;;;;5078127;28;20229;-66
2021/12/24 14:29:57;;;;;;;41.07;23.43;;;2.90;99.90;;;;;;5076281;28;20243;-65
2021/12/24 14:32:49;;;;;;;42.60;22.93;;;2.80;99.90;;;;;;5069678;28;20234;-67
2021/12/24 14:35:44;;;;;;;45.00;23.97;;;2.80;99.90;;;;;;5077610;28;20235;-67
2021/12/24 14:38:33;;;;;;;41.63;23.00;;;2.80;99.90;;;;;;5076519;28;20708;-66
2021/12/24 14:41:23;;;;;;;43.07;23.97;;;2.80;99.90;;;;;;5072337;28;20248;-65
2021/12/24 14:44:32;;;;;;;39.37;23.33;;;2.80;99.90;;;;;;5063308;28;20288;-66
2021/12/24 14:47:28;;;;;;;39.47;22.83;;;2.80;99.90;;;;;;5077982;28;20220;-66
2021/12/24 14:50:16;;;;;;;45.97;25.03;;;2.80;99.90;;;;;;5072334;28;20246;-65
2021/12/24 14:53:19;;;;;;;40.30;23.10;;;2.90;99.90;;;;;;5061150;28;20220;-66
2021/12/24 14:56:09;;;;;;;41.90;23.37;;;2.90;99.90;;;;;;5073208;28;20781;-65
2021/12/24 14:59:01;;;;;;;41.33;21.87;;;2.90;99.90;;;;;;5061096;28;20227;-66
2021/12/24 15:02:00;;;;;;;38.60;22.20;;;2.80;99.90;;;;;;5074775;28;20234;-66
2021/12/24 15:04:56;;;;;;;36.60;20.13;;;2.80;99.90;;;;;;5061460;28;20227;-66
2021/12/24 15:07:45;;;;;;;34.97;20.30;;;2.80;99.90;;;;;;5076052;28;20381;-66
2021/12/24 15:10:33;;;;;;;41.20;21.33;;;2.80;99.90;;;;;;5061003;28;20459;-67
2021/12/24 15:13:23;;;;;;;35.87;19.50;;;2.80;99.90;;;;;;5079005;28;20232;-66
2021/12/24 15:16:16;;;;;;;36.50;20.20;;;2.80;99.90;;;;;;5073497;28;20224;-66
2021/12/24 15:19:07;;;;;;;34.80;19.07;;;2.80;99.90;;;;;;5060889;28;20223;-68
2021/12/24 15:21:56;;;;;;;34.43;18.83;;;2.80;99.90;;;;;;5056223;28;20216;-66
2021/12/24 15:24:44;;;;;;;34.70;18.40;;;2.80;99.90;;;;;;5066051;28;20222;-67
2021/12/24 15:27:35;;;;;;;33.07;18.90;;;2.70;99.90;;;;;;5073855;28;20237;-67
2021/12/24 15:30:24;;;;;;;35.77;19.17;;;2.70;99.90;;;;;;5070891;28;20600;-66
2021/12/24 15:33:13;;;;;;;37.40;20.07;;;2.80;99.90;;;;;;5060461;28;20250;-68
2021/12/24 15:36:04;;;;;;;33.80;19.27;;;2.80;99.90;;;;;;5060319;28;20398;-68
2021/12/24 15:38:53;;;;;;;34.50;18.70;;;2.80;99.90;;;;;;5071829;28;20686;-66
2021/12/24 15:42:06;;;;;;;33.00;18.03;;;2.80;99.90;;;;;;5063130;28;20223;-67
2021/12/24 15:44:55;;;;;;;35.00;18.43;;;2.80;99.90;;;;;;5071347;28;20219;-66
2021/12/24 15:47:44;;;;;;;35.63;19.47;;;2.80;99.90;;;;;;5065184;28;20611;-67
2021/12/24 15:50:33;;;;;;;30.73;18.10;;;2.80;99.90;;;;;;5073349;28;20236;-67
2021/12/24 15:53:24;;;;;;;34.10;18.93;;;2.80;99.90;;;;;;5059188;28;20227;-67
2021/12/24 15:56:13;;;;;;;30.20;17.40;;;2.80;99.90;;;;;;5051758;28;20235;-68
2021/12/24 15:59:01;;;;;;;31.87;17.27;;;2.80;99.90;;;;;;5076292;28;20383;-67
2021/12/24 16:01:50;;;;;;;28.33;16.30;;;2.90;99.90;;;;;;5070813;28;20239;-67
2021/12/24 16:04:39;;;;;;;29.70;17.03;;;2.90;99.90;;;;;;5073956;28;20232;-67
2021/12/24 16:07:27;;;;;;;29.80;16.93;;;2.80;99.90;;;;;;5071992;28;20231;-65
2021/12/24 16:10:18;;;;;;;28.87;16.90;;;2.80;99.90;;;;;;5074831;28;20222;-67